Terminal Aerodrome Forecast
Issued by NWS

Home | Current Version | Previous Version | Text Only | Print | Product List | Glossary On
Versions: 1 2 3 4 5 6 7 8 9 10 11 12 13
000
FTAK31 PAJN 262300
TAFAJN
TAF
PAJN 262330Z 2700/2724 26010KT P6SM SCT045 BKN150
     FM270200 25006KT P6SM VCSH BKN045
     FM270400 30005KT P6SM -SHRA OVC040
     FM270900 VRB03KT P6SM -RA OVC025
     FM272000 26006KT P6SM -RA SCT025 OVC035=

USA.gov is the U.S. government's official web portal to all federal, state and local government web resources and services.